createdAt,value
2022-11-13T00:04:33.430Z,101762.22
2022-11-13T00:09:36.308Z,101755.53
2022-11-13T00:14:39.177Z,101756.63
2022-11-13T00:19:42.562Z,101753.44
2022-11-13T00:24:46.471Z,101746.81
2022-11-13T00:29:49.398Z,101743.69
2022-11-13T00:34:53.046Z,101752.69
2022-11-13T00:39:59.620Z,101755.69
2022-11-13T00:45:02.668Z,101749.81
2022-11-13T00:50:06.038Z,101743.13
2022-11-13T00:55:09.184Z,101740.91
2022-11-13T01:00:12.815Z,101739.38
2022-11-13T01:05:15.698Z,101739.72
2022-11-13T01:10:18.773Z,101752.09
2022-11-13T01:15:21.669Z,101739.13
2022-11-13T01:20:26.014Z,101747.16
2022-11-13T01:25:29.508Z,101740.31
2022-11-13T01:30:32.788Z,101728.34
2022-11-13T01:35:35.707Z,101737.25
2022-11-13T01:40:48.391Z,101727.16
2022-11-13T01:46:00.459Z,101736.16
2022-11-13T01:51:09.707Z,101718.09
2022-11-13T01:56:13.302Z,101704.34
2022-11-13T02:01:16.045Z,101707.81
2022-11-13T02:06:21.914Z,101699.00
2022-11-13T02:11:25.663Z,101701.81
2022-11-13T02:16:32.264Z,101709.16
2022-11-13T02:21:53.537Z,101710.94
2022-11-13T02:27:02.994Z,101700.00
2022-11-13T02:32:06.010Z,101695.91
2022-11-13T02:37:09.692Z,101698.09
2022-11-13T02:42:12.515Z,101698.44
2022-11-13T02:47:15.442Z,101706.84
2022-11-13T02:52:18.152Z,101692.41
2022-11-13T02:57:21.104Z,101695.53
2022-11-13T03:02:24.499Z,101690.59
2022-11-13T03:07:27.719Z,101687.81
2022-11-13T03:12:30.836Z,101683.88
2022-11-13T03:17:35.200Z,101684.69
2022-11-13T03:22:38.087Z,101690.53
2022-11-13T03:27:40.905Z,101677.31
2022-11-13T03:32:43.873Z,101686.66
2022-11-13T03:37:46.912Z,101691.72
2022-11-13T03:42:49.768Z,101695.88
2022-11-13T03:47:52.654Z,101686.63
2022-11-13T03:52:55.570Z,101681.13
2022-11-13T03:57:58.465Z,101676.44
2022-11-13T04:03:01.582Z,101683.78
2022-11-13T04:08:04.829Z,101679.13
2022-11-13T04:13:07.957Z,101671.31
2022-11-13T04:18:10.802Z,101684.53
2022-11-13T04:23:15.997Z,101683.19
2022-11-13T04:28:18.990Z,101681.72
2022-11-13T04:33:22.185Z,101674.91
2022-11-13T04:38:25.199Z,101689.00
2022-11-13T04:43:28.303Z,101696.31
2022-11-13T04:48:31.481Z,101696.41
2022-11-13T04:53:34.798Z,101689.06
2022-11-13T04:58:37.522Z,101672.38
2022-11-13T05:03:40.411Z,101683.66
2022-11-13T05:08:43.256Z,101682.06
2022-11-13T05:13:46.828Z,101686.78
2022-11-13T05:18:50.266Z,101692.31
2022-11-13T05:23:53.133Z,101690.41
2022-11-13T05:29:00.556Z,101695.16
2022-11-13T05:34:06.319Z,101687.50
2022-11-13T05:39:09.404Z,101684.88
2022-11-13T05:44:12.332Z,101675.31
2022-11-13T05:49:15.661Z,101680.97
2022-11-13T05:54:18.536Z,101678.16
2022-11-13T05:59:21.452Z,101680.28
2022-11-13T06:04:24.326Z,101677.31
2022-11-13T06:09:27.436Z,101673.22
2022-11-13T06:14:30.245Z,101674.38
2022-11-13T06:19:32.959Z,101684.53
2022-11-13T06:24:36.429Z,101688.59
2022-11-13T06:29:39.564Z,101683.81
2022-11-13T06:34:42.766Z,101681.03
2022-11-13T06:39:45.511Z,101684.88
2022-11-13T06:44:48.421Z,101681.16
2022-11-13T06:49:51.302Z,101683.41
2022-11-13T06:54:54.230Z,101691.06
2022-11-13T06:59:57.473Z,101692.75
2022-11-13T07:05:00.577Z,101702.53
2022-11-13T07:10:03.529Z,101704.63
2022-11-13T07:15:06.999Z,101703.41
2022-11-13T07:20:10.758Z,101695.53
2022-11-13T07:25:14.109Z,101703.53
2022-11-13T07:30:18.031Z,101695.72
2022-11-13T07:35:21.397Z,101703.81
2022-11-13T07:40:24.728Z,101694.19
2022-11-13T07:45:28.786Z,101695.59
2022-11-13T07:50:36.167Z,101705.94
2022-11-13T07:55:39.104Z,101704.97
2022-11-13T08:00:42.376Z,101700.09
2022-11-13T08:05:45.668Z,101703.09
2022-11-13T08:10:48.599Z,101701.66
2022-11-13T08:15:51.502Z,101705.38
2022-11-13T08:20:54.909Z,101702.41
2022-11-13T08:25:58.508Z,101703.50
2022-11-13T08:31:03.101Z,101695.47
2022-11-13T08:36:06.793Z,101696.75
2022-11-13T08:41:10.074Z,101685.78
2022-11-13T08:46:12.914Z,101683.47
2022-11-13T08:51:16.881Z,101685.28
2022-11-13T08:56:20.058Z,101682.88
2022-11-13T09:01:22.970Z,101694.28
2022-11-13T09:06:26.120Z,101693.66
2022-11-13T09:11:31.548Z,101689.53
2022-11-13T09:16:34.557Z,101685.19
2022-11-13T09:21:37.290Z,101689.19
2022-11-13T09:26:40.211Z,101684.97
2022-11-13T09:31:43.047Z,101680.41
2022-11-13T09:36:46.654Z,101676.03
2022-11-13T09:42:22.618Z,101676.66
2022-11-13T09:47:37.516Z,101667.31
2022-11-13T09:52:44.363Z,101664.50
2022-11-13T09:58:06.956Z,101647.72
2022-11-13T10:04:00.624Z,101639.28
2022-11-13T10:09:28.507Z,101635.25
2022-11-13T10:14:46.023Z,101623.47
2022-11-13T10:20:16.195Z,101626.28
2022-11-13T10:25:24.053Z,101610.53
2022-11-13T10:30:29.690Z,101605.50
2022-11-13T10:35:38.495Z,101607.31
2022-11-13T10:40:41.561Z,101586.97
2022-11-13T10:45:59.466Z,101589.22
2022-11-13T10:51:29.240Z,101574.06
2022-11-13T10:56:37.588Z,101576.84
2022-11-13T11:01:42.671Z,101562.88
2022-11-13T11:07:18.464Z,101555.75
2022-11-13T11:12:30.179Z,101553.72
2022-11-13T11:18:01.582Z,101544.63
2022-11-13T11:23:31.152Z,101547.25
2022-11-13T11:29:00.512Z,101538.94
2022-11-13T11:34:16.217Z,101537.97
2022-11-13T11:39:48.460Z,101521.19
2022-11-13T11:45:04.917Z,101518.59
2022-11-13T11:50:18.796Z,101508.22
2022-11-13T11:56:04.805Z,101509.63
2022-11-13T12:01:37.408Z,101493.94
2022-11-13T12:07:00.342Z,101494.25
2022-11-13T12:12:18.254Z,101491.31
2022-11-13T12:17:56.034Z,101479.16
2022-11-13T12:23:28.861Z,101480.66
2022-11-13T12:29:06.450Z,101476.44
2022-11-13T12:34:34.459Z,101456.13
2022-11-13T12:40:00.399Z,101443.56
2022-11-13T12:45:28.199Z,101440.19
2022-11-13T12:50:33.019Z,101429.72
2022-11-13T12:55:40.816Z,101417.31
2022-11-13T13:00:58.948Z,101423.09
2022-11-13T13:06:08.326Z,101419.66
2022-11-13T13:11:49.056Z,101414.69
2022-11-13T13:16:52.116Z,101408.56
2022-11-13T13:21:56.129Z,101401.84
2022-11-13T13:27:01.482Z,101403.50
2022-11-13T13:32:27.254Z,101395.63
2022-11-13T13:38:08.268Z,101398.66
2022-11-13T13:43:41.346Z,101395.47
2022-11-13T13:48:47.897Z,101392.06
2022-11-13T13:53:51.557Z,101385.84
2022-11-13T13:58:55.171Z,101390.00
2022-11-13T14:04:18.849Z,101389.69
2022-11-13T14:09:26.549Z,101380.69
2022-11-13T14:14:31.100Z,101366.16
2022-11-13T14:19:34.149Z,101369.31
2022-11-13T14:24:53.667Z,101366.72
2022-11-13T14:30:01.569Z,101369.91
2022-11-13T14:35:08.066Z,101363.63
2022-11-13T14:40:33.269Z,101369.63
2022-11-13T14:45:36.382Z,101360.66
2022-11-13T14:50:51.212Z,101363.19
2022-11-13T14:56:00.541Z,101357.44
2022-11-13T15:01:25.435Z,101368.72
2022-11-13T15:06:39.865Z,101365.81
2022-11-13T15:11:43.416Z,101363.75
2022-11-13T15:16:48.755Z,101369.34
2022-11-13T15:22:25.293Z,101362.59
2022-11-13T15:27:19.263Z,101368.28
2022-11-13T15:32:22.202Z,101349.34
2022-11-13T15:37:25.748Z,101351.28
2022-11-13T15:42:34.714Z,101356.84
2022-11-13T15:47:37.955Z,101355.22
2022-11-13T15:52:45.087Z,101359.88
2022-11-13T15:57:48.785Z,101366.19
2022-11-13T16:02:57.313Z,101354.94
2022-11-13T16:08:00.230Z,101364.75
2022-11-13T16:13:03.612Z,101377.06
2022-11-13T16:18:15.824Z,101369.28
2022-11-13T16:23:19.032Z,101376.31
2022-11-13T16:28:22.010Z,101383.34
2022-11-13T16:33:24.810Z,101376.25
2022-11-13T16:38:28.476Z,101370.22
2022-11-13T16:43:31.353Z,101363.97
2022-11-13T16:48:34.447Z,101361.00
2022-11-13T16:53:37.285Z,101346.50
2022-11-13T16:58:40.268Z,101342.59
2022-11-13T17:03:43.849Z,101356.88
2022-11-13T17:08:51.067Z,101349.38
2022-11-13T17:13:56.993Z,101350.53
2022-11-13T17:19:00.335Z,101348.84
2022-11-13T17:24:03.906Z,101351.50
2022-11-13T17:29:07.379Z,101352.41
2022-11-13T17:34:10.308Z,101355.25
2022-11-13T17:39:13.236Z,101344.16
2022-11-13T17:44:17.525Z,101348.97
2022-11-13T17:49:21.076Z,101347.69
2022-11-13T17:54:25.380Z,101341.97
2022-11-13T17:59:28.562Z,101345.03
2022-11-13T18:04:31.222Z,101346.47
2022-11-13T18:09:35.246Z,101345.16
2022-11-13T18:14:38.114Z,101348.28
2022-11-13T18:19:40.959Z,101350.50
2022-11-13T18:24:44.091Z,101343.09
2022-11-13T18:29:47.065Z,101353.97
2022-11-13T18:34:49.974Z,101355.94
2022-11-13T18:39:53.377Z,101365.78
2022-11-13T18:44:56.273Z,101366.06
2022-11-13T18:49:59.240Z,101364.38
2022-11-13T18:55:02.331Z,101370.47
2022-11-13T19:00:05.857Z,101367.06
2022-11-13T19:05:09.676Z,101378.09
2022-11-13T19:10:12.898Z,101375.84
2022-11-13T19:15:15.894Z,101369.16
2022-11-13T19:20:18.947Z,101381.75
2022-11-13T19:25:22.720Z,101370.59
2022-11-13T19:30:25.737Z,101368.25
2022-11-13T19:35:28.711Z,101366.00
2022-11-13T19:40:31.824Z,101360.25
2022-11-13T19:45:36.166Z,101372.91
2022-11-13T19:50:39.483Z,101377.06
2022-11-13T19:55:42.820Z,101376.66
2022-11-13T20:00:45.712Z,101371.31
2022-11-13T20:05:54.708Z,101374.50
2022-11-13T20:11:10.456Z,101377.69
2022-11-13T20:16:16.008Z,101372.22
2022-11-13T20:21:30.200Z,101378.88
2022-11-13T20:26:33.250Z,101375.28
2022-11-13T20:31:36.329Z,101373.31
2022-11-13T20:36:39.268Z,101358.38
2022-11-13T20:41:42.761Z,101365.16
2022-11-13T20:46:45.727Z,101353.56
2022-11-13T20:51:50.634Z,101364.75
2022-11-13T20:56:56.470Z,101358.66
2022-11-13T21:01:59.613Z,101361.06
2022-11-13T21:07:02.570Z,101349.91
2022-11-13T21:12:05.870Z,101349.69
2022-11-13T21:17:08.736Z,101354.97
2022-11-13T21:22:11.614Z,101350.94
2022-11-13T21:27:14.535Z,101345.78
2022-11-13T21:32:17.451Z,101359.03
2022-11-13T21:37:20.339Z,101348.53
2022-11-13T21:42:23.191Z,101353.97
2022-11-13T21:47:26.203Z,101368.34
2022-11-13T21:52:29.525Z,101358.31
2022-11-13T21:57:32.409Z,101357.66
2022-11-13T22:02:35.475Z,101346.06
2022-11-13T22:07:38.345Z,101353.56
2022-11-13T22:12:41.281Z,101340.91
2022-11-13T22:17:44.363Z,101351.25
2022-11-13T22:22:47.255Z,101347.00
2022-11-13T22:27:49.885Z,101348.63
2022-11-13T22:32:52.759Z,101339.88
2022-11-13T22:37:55.611Z,101338.19
2022-11-13T22:42:59.603Z,101346.06
2022-11-13T22:48:02.492Z,101325.25
2022-11-13T22:53:05.347Z,101330.59
2022-11-13T22:58:08.150Z,101324.69
2022-11-13T23:03:11.072Z,101319.97
2022-11-13T23:08:13.922Z,101315.31
2022-11-13T23:13:16.957Z,101308.09
2022-11-13T23:18:19.896Z,101302.84
2022-11-13T23:23:22.772Z,101296.94
2022-11-13T23:28:26.183Z,101292.69
2022-11-13T23:33:29.259Z,101277.94
2022-11-13T23:38:32.428Z,101276.41
2022-11-13T23:48:58.483Z,101278.59
2022-11-13T23:54:01.513Z,101284.53
2022-11-13T23:59:04.443Z,101287.78
